sensor_id;sensor_type;location;lat;lon;timestamp;P1;durP1;ratioP1;P2;durP2;ratioP2
32333;SDS011;18810;53.040;8.850;2023-01-28T00:00:29;3.58;;;3.28;;
32333;SDS011;18810;53.040;8.850;2023-01-28T00:02:55;9.02;;;5.55;;
32333;SDS011;18810;53.040;8.850;2023-01-28T00:05:20;8.40;;;5.68;;
32333;SDS011;18810;53.040;8.850;2023-01-28T00:07:51;9.07;;;5.30;;
32333;SDS011;18810;53.040;8.850;2023-01-28T00:10:16;8.05;;;4.50;;
32333;SDS011;18810;53.040;8.850;2023-01-28T00:12:42;11.63;;;5.93;;
32333;SDS011;18810;53.040;8.850;2023-01-28T00:15:09;10.20;;;5.82;;
32333;SDS011;18810;53.040;8.850;2023-01-28T00:17:35;6.03;;;4.20;;
32333;SDS011;18810;53.040;8.850;2023-01-28T00:20:05;4.20;;;3.80;;
32333;SDS011;18810;53.040;8.850;2023-01-28T00:22:31;9.55;;;4.82;;
32333;SDS011;18810;53.040;8.850;2023-01-28T00:24:57;5.82;;;4.13;;
32333;SDS011;18810;53.040;8.850;2023-01-28T00:27:23;4.68;;;3.85;;
32333;SDS011;18810;53.040;8.850;2023-01-28T00:29:49;4.72;;;3.80;;
32333;SDS011;18810;53.040;8.850;2023-01-28T00:32:15;4.25;;;3.85;;
32333;SDS011;18810;53.040;8.850;2023-01-28T00:34:40;8.55;;;4.68;;
32333;SDS011;18810;53.040;8.850;2023-01-28T00:37:06;14.55;;;8.30;;
32333;SDS011;18810;53.040;8.850;2023-01-28T00:39:32;9.02;;;5.30;;
32333;SDS011;18810;53.040;8.850;2023-01-28T00:41:57;11.32;;;7.20;;
32333;SDS011;18810;53.040;8.850;2023-01-28T00:44:23;8.57;;;5.68;;
32333;SDS011;18810;53.040;8.850;2023-01-28T00:46:49;5.90;;;4.00;;
32333;SDS011;18810;53.040;8.850;2023-01-28T00:49:14;5.72;;;3.95;;
32333;SDS011;18810;53.040;8.850;2023-01-28T00:51:40;4.70;;;3.83;;
32333;SDS011;18810;53.040;8.850;2023-01-28T00:54:06;4.30;;;3.25;;
32333;SDS011;18810;53.040;8.850;2023-01-28T00:56:31;3.65;;;3.30;;
32333;SDS011;18810;53.040;8.850;2023-01-28T00:58:57;19.60;;;9.32;;
32333;SDS011;18810;53.040;8.850;2023-01-28T01:01:24;20.15;;;10.77;;
32333;SDS011;18810;53.040;8.850;2023-01-28T01:03:51;40.40;;;18.63;;
32333;SDS011;18810;53.040;8.850;2023-01-28T01:06:28;26.17;;;13.55;;
32333;SDS011;18810;53.040;8.850;2023-01-28T01:08:56;7.45;;;4.78;;
32333;SDS011;18810;53.040;8.850;2023-01-28T01:11:21;10.05;;;6.47;;
32333;SDS011;18810;53.040;8.850;2023-01-28T01:13:49;18.00;;;9.07;;
32333;SDS011;18810;53.040;8.850;2023-01-28T01:16:16;9.30;;;5.20;;
32333;SDS011;18810;53.040;8.850;2023-01-28T01:18:42;6.45;;;4.25;;
32333;SDS011;18810;53.040;8.850;2023-01-28T01:21:08;5.82;;;3.83;;
32333;SDS011;18810;53.040;8.850;2023-01-28T01:23:35;3.20;;;3.00;;
32333;SDS011;18810;53.040;8.850;2023-01-28T01:26:02;4.05;;;3.28;;
32333;SDS011;18810;53.040;8.850;2023-01-28T01:28:28;3.78;;;3.17;;
32333;SDS011;18810;53.040;8.850;2023-01-28T01:30:59;4.05;;;3.33;;
32333;SDS011;18810;53.040;8.850;2023-01-28T01:33:27;3.55;;;3.20;;
32333;SDS011;18810;53.040;8.850;2023-01-28T01:35:54;4.20;;;3.25;;
32333;SDS011;18810;53.040;8.850;2023-01-28T01:38:20;4.03;;;3.38;;
32333;SDS011;18810;53.040;8.850;2023-01-28T01:40:46;3.50;;;3.13;;
32333;SDS011;18810;53.040;8.850;2023-01-28T01:43:15;5.32;;;4.10;;
32333;SDS011;18810;53.040;8.850;2023-01-28T01:45:57;5.70;;;3.60;;
32333;SDS011;18810;53.040;8.850;2023-01-28T01:48:29;10.32;;;5.03;;
32333;SDS011;18810;53.040;8.850;2023-01-28T01:51:01;16.10;;;7.07;;
32333;SDS011;18810;53.040;8.850;2023-01-28T01:53:34;14.20;;;7.00;;
32333;SDS011;18810;53.040;8.850;2023-01-28T01:56:04;11.75;;;5.20;;
32333;SDS011;18810;53.040;8.850;2023-01-28T01:58:33;4.78;;;3.88;;
32333;SDS011;18810;53.040;8.850;2023-01-28T02:01:01;5.45;;;3.47;;
32333;SDS011;18810;53.040;8.850;2023-01-28T02:03:30;5.53;;;3.85;;
32333;SDS011;18810;53.040;8.850;2023-01-28T02:06:12;5.00;;;3.47;;
32333;SDS011;18810;53.040;8.850;2023-01-28T02:08:38;3.47;;;3.17;;
32333;SDS011;18810;53.040;8.850;2023-01-28T02:11:04;3.72;;;3.30;;
32333;SDS011;18810;53.040;8.850;2023-01-28T02:13:37;6.25;;;3.30;;
32333;SDS011;18810;53.040;8.850;2023-01-28T02:16:06;6.72;;;3.65;;
32333;SDS011;18810;53.040;8.850;2023-01-28T02:18:33;3.63;;;3.33;;
32333;SDS011;18810;53.040;8.850;2023-01-28T02:31:42;3.22;;;2.92;;
32333;SDS011;18810;53.040;8.850;2023-01-28T02:37:14;4.95;;;3.78;;
32333;SDS011;18810;53.040;8.850;2023-01-28T02:39:50;4.10;;;3.30;;
32333;SDS011;18810;53.040;8.850;2023-01-28T02:42:20;3.97;;;3.63;;
32333;SDS011;18810;53.040;8.850;2023-01-28T02:44:51;5.05;;;3.30;;
32333;SDS011;18810;53.040;8.850;2023-01-28T02:47:16;7.43;;;4.32;;
32333;SDS011;18810;53.040;8.850;2023-01-28T02:50:01;3.92;;;2.92;;
32333;SDS011;18810;53.040;8.850;2023-01-28T02:55:56;5.28;;;3.08;;
32333;SDS011;18810;53.040;8.850;2023-01-28T03:01:15;4.43;;;3.33;;
32333;SDS011;18810;53.040;8.850;2023-01-28T03:06:31;5.50;;;4.00;;
32333;SDS011;18810;53.040;8.850;2023-01-28T03:09:03;4.47;;;4.05;;
32333;SDS011;18810;53.040;8.850;2023-01-28T03:12:32;9.65;;;4.78;;
32333;SDS011;18810;53.040;8.850;2023-01-28T03:15:02;4.53;;;3.85;;
32333;SDS011;18810;53.040;8.850;2023-01-28T03:21:20;5.97;;;3.78;;
32333;SDS011;18810;53.040;8.850;2023-01-28T03:24:23;5.93;;;4.20;;
32333;SDS011;18810;53.040;8.850;2023-01-28T03:27:13;5.40;;;4.32;;
32333;SDS011;18810;53.040;8.850;2023-01-28T03:30:12;5.60;;;3.95;;
32333;SDS011;18810;53.040;8.850;2023-01-28T03:32:59;3.97;;;3.60;;
32333;SDS011;18810;53.040;8.850;2023-01-28T03:35:45;6.57;;;4.45;;
32333;SDS011;18810;53.040;8.850;2023-01-28T03:38:31;9.60;;;4.07;;
32333;SDS011;18810;53.040;8.850;2023-01-28T03:41:06;6.03;;;4.07;;
32333;SDS011;18810;53.040;8.850;2023-01-28T03:43:33;6.57;;;4.30;;
32333;SDS011;18810;53.040;8.850;2023-01-28T03:46:00;8.18;;;4.50;;
32333;SDS011;18810;53.040;8.850;2023-01-28T03:48:27;7.25;;;4.55;;
32333;SDS011;18810;53.040;8.850;2023-01-28T03:50:56;6.53;;;4.60;;
32333;SDS011;18810;53.040;8.850;2023-01-28T03:53:24;5.40;;;4.43;;
32333;SDS011;18810;53.040;8.850;2023-01-28T03:55:51;4.40;;;3.83;;
32333;SDS011;18810;53.040;8.850;2023-01-28T03:58:18;6.85;;;4.82;;
32333;SDS011;18810;53.040;8.850;2023-01-28T04:00:44;7.07;;;5.20;;
32333;SDS011;18810;53.040;8.850;2023-01-28T04:03:11;6.35;;;4.80;;
32333;SDS011;18810;53.040;8.850;2023-01-28T04:05:42;7.93;;;4.85;;
32333;SDS011;18810;53.040;8.850;2023-01-28T04:08:08;7.13;;;5.43;;
32333;SDS011;18810;53.040;8.850;2023-01-28T04:10:33;6.82;;;4.70;;
32333;SDS011;18810;53.040;8.850;2023-01-28T04:12:59;9.82;;;5.20;;
32333;SDS011;18810;53.040;8.850;2023-01-28T04:15:25;5.18;;;4.65;;
32333;SDS011;18810;53.040;8.850;2023-01-28T04:17:51;5.22;;;4.72;;
32333;SDS011;18810;53.040;8.850;2023-01-28T04:20:17;6.72;;;5.55;;
32333;SDS011;18810;53.040;8.850;2023-01-28T04:22:43;6.47;;;5.82;;
32333;SDS011;18810;53.040;8.850;2023-01-28T04:25:09;9.40;;;5.85;;
32333;SDS011;18810;53.040;8.850;2023-01-28T04:27:35;8.57;;;6.72;;
32333;SDS011;18810;53.040;8.850;2023-01-28T04:30:00;10.25;;;6.28;;
32333;SDS011;18810;53.040;8.850;2023-01-28T04:32:26;9.43;;;6.43;;
32333;SDS011;18810;53.040;8.850;2023-01-28T04:34:52;8.68;;;7.38;;
32333;SDS011;18810;53.040;8.850;2023-01-28T04:37:18;11.25;;;7.45;;
32333;SDS011;18810;53.040;8.850;2023-01-28T04:39:44;13.52;;;8.30;;
32333;SDS011;18810;53.040;8.850;2023-01-28T04:42:09;13.15;;;7.60;;
32333;SDS011;18810;53.040;8.850;2023-01-28T04:44:35;10.98;;;8.50;;
32333;SDS011;18810;53.040;8.850;2023-01-28T04:47:01;14.75;;;10.02;;
32333;SDS011;18810;53.040;8.850;2023-01-28T04:49:27;12.18;;;9.40;;
32333;SDS011;18810;53.040;8.850;2023-01-28T04:51:53;14.27;;;9.73;;
32333;SDS011;18810;53.040;8.850;2023-01-28T04:54:19;13.52;;;9.55;;
32333;SDS011;18810;53.040;8.850;2023-01-28T04:56:45;16.08;;;11.30;;
32333;SDS011;18810;53.040;8.850;2023-01-28T04:59:11;13.52;;;10.52;;
32333;SDS011;18810;53.040;8.850;2023-01-28T05:01:36;18.85;;;11.23;;
32333;SDS011;18810;53.040;8.850;2023-01-28T05:04:03;16.77;;;10.82;;
32333;SDS011;18810;53.040;8.850;2023-01-28T05:06:30;12.30;;;9.70;;
32333;SDS011;18810;53.040;8.850;2023-01-28T05:08:56;13.43;;;10.57;;
32333;SDS011;18810;53.040;8.850;2023-01-28T05:11:22;16.00;;;10.60;;
32333;SDS011;18810;53.040;8.850;2023-01-28T05:13:49;15.27;;;11.50;;
32333;SDS011;18810;53.040;8.850;2023-01-28T05:16:15;19.23;;;12.70;;
32333;SDS011;18810;53.040;8.850;2023-01-28T05:18:41;17.45;;;11.93;;
32333;SDS011;18810;53.040;8.850;2023-01-28T05:21:07;21.15;;;13.45;;
32333;SDS011;18810;53.040;8.850;2023-01-28T05:23:33;15.18;;;11.88;;
32333;SDS011;18810;53.040;8.850;2023-01-28T05:25:59;18.38;;;11.80;;
32333;SDS011;18810;53.040;8.850;2023-01-28T05:28:25;14.60;;;10.93;;
32333;SDS011;18810;53.040;8.850;2023-01-28T05:30:50;18.48;;;12.60;;
32333;SDS011;18810;53.040;8.850;2023-01-28T05:33:16;18.30;;;12.65;;
32333;SDS011;18810;53.040;8.850;2023-01-28T05:35:42;26.23;;;14.77;;
32333;SDS011;18810;53.040;8.850;2023-01-28T05:38:08;24.83;;;16.02;;
32333;SDS011;18810;53.040;8.850;2023-01-28T05:40:34;26.77;;;16.80;;
32333;SDS011;18810;53.040;8.850;2023-01-28T05:43:00;27.33;;;16.73;;
32333;SDS011;18810;53.040;8.850;2023-01-28T05:45:25;26.70;;;17.92;;
32333;SDS011;18810;53.040;8.850;2023-01-28T05:47:51;29.63;;;18.15;;
32333;SDS011;18810;53.040;8.850;2023-01-28T05:50:16;28.38;;;17.98;;
32333;SDS011;18810;53.040;8.850;2023-01-28T05:52:43;29.58;;;18.73;;
32333;SDS011;18810;53.040;8.850;2023-01-28T05:55:09;33.20;;;19.42;;
32333;SDS011;18810;53.040;8.850;2023-01-28T05:57:34;29.95;;;19.10;;
32333;SDS011;18810;53.040;8.850;2023-01-28T06:00:00;30.83;;;19.40;;
32333;SDS011;18810;53.040;8.850;2023-01-28T06:02:29;31.40;;;19.23;;
32333;SDS011;18810;53.040;8.850;2023-01-28T06:04:55;33.28;;;19.70;;
32333;SDS011;18810;53.040;8.850;2023-01-28T06:07:20;32.13;;;19.85;;
32333;SDS011;18810;53.040;8.850;2023-01-28T06:09:47;35.40;;;19.73;;
32333;SDS011;18810;53.040;8.850;2023-01-28T06:12:13;33.25;;;20.83;;
32333;SDS011;18810;53.040;8.850;2023-01-28T06:14:40;30.65;;;20.50;;
32333;SDS011;18810;53.040;8.850;2023-01-28T06:17:06;32.38;;;20.27;;
32333;SDS011;18810;53.040;8.850;2023-01-28T06:19:31;33.75;;;20.00;;
32333;SDS011;18810;53.040;8.850;2023-01-28T06:21:57;33.28;;;20.75;;
32333;SDS011;18810;53.040;8.850;2023-01-28T06:24:23;36.53;;;21.55;;
32333;SDS011;18810;53.040;8.850;2023-01-28T06:26:49;37.10;;;22.38;;
32333;SDS011;18810;53.040;8.850;2023-01-28T06:29:15;35.17;;;21.55;;
32333;SDS011;18810;53.040;8.850;2023-01-28T06:31:41;33.30;;;20.70;;
32333;SDS011;18810;53.040;8.850;2023-01-28T06:34:08;36.30;;;21.48;;
32333;SDS011;18810;53.040;8.850;2023-01-28T06:36:35;35.75;;;22.08;;
32333;SDS011;18810;53.040;8.850;2023-01-28T06:39:02;34.58;;;21.85;;
32333;SDS011;18810;53.040;8.850;2023-01-28T06:41:28;37.83;;;22.75;;
32333;SDS011;18810;53.040;8.850;2023-01-28T06:43:54;35.78;;;21.67;;
32333;SDS011;18810;53.040;8.850;2023-01-28T06:46:20;38.88;;;23.25;;
32333;SDS011;18810;53.040;8.850;2023-01-28T06:48:46;38.58;;;23.55;;
32333;SDS011;18810;53.040;8.850;2023-01-28T06:51:12;39.90;;;23.55;;
32333;SDS011;18810;53.040;8.850;2023-01-28T06:53:37;43.90;;;24.17;;
32333;SDS011;18810;53.040;8.850;2023-01-28T06:56:03;38.83;;;22.88;;
32333;SDS011;18810;53.040;8.850;2023-01-28T06:58:29;41.92;;;23.55;;
32333;SDS011;18810;53.040;8.850;2023-01-28T07:00:55;37.95;;;23.55;;
32333;SDS011;18810;53.040;8.850;2023-01-28T07:03:20;41.42;;;24.42;;
32333;SDS011;18810;53.040;8.850;2023-01-28T07:05:46;44.83;;;25.60;;
32333;SDS011;18810;53.040;8.850;2023-01-28T07:08:12;41.97;;;25.23;;
32333;SDS011;18810;53.040;8.850;2023-01-28T07:10:38;39.53;;;24.75;;
32333;SDS011;18810;53.040;8.850;2023-01-28T07:13:03;41.08;;;24.77;;
32333;SDS011;18810;53.040;8.850;2023-01-28T07:15:29;44.50;;;24.17;;
32333;SDS011;18810;53.040;8.850;2023-01-28T07:17:55;44.55;;;24.38;;
32333;SDS011;18810;53.040;8.850;2023-01-28T07:20:21;40.83;;;23.67;;
32333;SDS011;18810;53.040;8.850;2023-01-28T07:22:46;44.17;;;25.90;;
32333;SDS011;18810;53.040;8.850;2023-01-28T07:25:12;44.53;;;25.20;;
32333;SDS011;18810;53.040;8.850;2023-01-28T07:27:38;49.42;;;25.27;;
32333;SDS011;18810;53.040;8.850;2023-01-28T07:30:09;47.85;;;25.42;;
32333;SDS011;18810;53.040;8.850;2023-01-28T07:32:35;42.10;;;24.63;;
32333;SDS011;18810;53.040;8.850;2023-01-28T07:35:01;45.50;;;24.42;;
32333;SDS011;18810;53.040;8.850;2023-01-28T07:37:27;42.80;;;25.48;;
32333;SDS011;18810;53.040;8.850;2023-01-28T07:39:53;44.60;;;25.67;;
32333;SDS011;18810;53.040;8.850;2023-01-28T07:42:19;44.50;;;25.48;;
32333;SDS011;18810;53.040;8.850;2023-01-28T07:44:45;48.47;;;27.45;;
32333;SDS011;18810;53.040;8.850;2023-01-28T07:47:10;49.95;;;27.65;;
32333;SDS011;18810;53.040;8.850;2023-01-28T07:49:36;47.40;;;26.65;;
32333;SDS011;18810;53.040;8.850;2023-01-28T07:52:05;49.22;;;26.25;;
32333;SDS011;18810;53.040;8.850;2023-01-28T07:54:31;47.30;;;27.17;;
32333;SDS011;18810;53.040;8.850;2023-01-28T07:56:56;47.75;;;26.95;;
32333;SDS011;18810;53.040;8.850;2023-01-28T07:59:22;44.97;;;26.50;;
32333;SDS011;18810;53.040;8.850;2023-01-28T08:01:48;50.15;;;29.25;;
32333;SDS011;18810;53.040;8.850;2023-01-28T08:04:14;49.35;;;27.23;;
32333;SDS011;18810;53.040;8.850;2023-01-28T08:06:40;54.50;;;28.38;;
32333;SDS011;18810;53.040;8.850;2023-01-28T08:09:06;50.58;;;27.67;;
32333;SDS011;18810;53.040;8.850;2023-01-28T08:11:33;48.42;;;27.05;;
32333;SDS011;18810;53.040;8.850;2023-01-28T08:14:01;48.53;;;27.92;;
32333;SDS011;18810;53.040;8.850;2023-01-28T08:16:27;45.80;;;27.55;;
32333;SDS011;18810;53.040;8.850;2023-01-28T08:18:53;47.75;;;27.02;;
32333;SDS011;18810;53.040;8.850;2023-01-28T08:21:19;48.55;;;27.08;;
32333;SDS011;18810;53.040;8.850;2023-01-28T08:23:45;47.65;;;25.20;;
32333;SDS011;18810;53.040;8.850;2023-01-28T08:26:11;44.92;;;25.73;;
32333;SDS011;18810;53.040;8.850;2023-01-28T08:28:36;44.65;;;25.42;;
32333;SDS011;18810;53.040;8.850;2023-01-28T08:31:02;45.28;;;24.58;;
32333;SDS011;18810;53.040;8.850;2023-01-28T08:33:28;39.67;;;23.40;;
32333;SDS011;18810;53.040;8.850;2023-01-28T08:35:54;39.55;;;23.83;;
32333;SDS011;18810;53.040;8.850;2023-01-28T08:38:20;40.05;;;23.65;;
32333;SDS011;18810;53.040;8.850;2023-01-28T08:40:46;37.38;;;23.38;;
32333;SDS011;18810;53.040;8.850;2023-01-28T08:43:14;39.88;;;23.25;;
32333;SDS011;18810;53.040;8.850;2023-01-28T08:45:40;39.47;;;23.65;;
32333;SDS011;18810;53.040;8.850;2023-01-28T08:48:06;42.00;;;24.00;;
32333;SDS011;18810;53.040;8.850;2023-01-28T08:50:36;41.28;;;24.77;;
32333;SDS011;18810;53.040;8.850;2023-01-28T08:53:07;41.92;;;24.98;;
32333;SDS011;18810;53.040;8.850;2023-01-28T08:55:37;38.88;;;23.83;;
32333;SDS011;18810;53.040;8.850;2023-01-28T08:58:06;42.60;;;24.85;;
32333;SDS011;18810;53.040;8.850;2023-01-28T09:00:34;68.47;;;40.90;;
32333;SDS011;18810;53.040;8.850;2023-01-28T09:03:00;41.95;;;25.73;;
32333;SDS011;18810;53.040;8.850;2023-01-28T09:05:26;39.17;;;23.80;;
32333;SDS011;18810;53.040;8.850;2023-01-28T09:07:51;59.67;;;33.63;;
32333;SDS011;18810;53.040;8.850;2023-01-28T09:10:17;44.53;;;28.05;;
32333;SDS011;18810;53.040;8.850;2023-01-28T09:12:46;38.85;;;24.45;;
32333;SDS011;18810;53.040;8.850;2023-01-28T09:15:12;43.75;;;27.05;;
32333;SDS011;18810;53.040;8.850;2023-01-28T09:17:38;42.53;;;25.73;;
32333;SDS011;18810;53.040;8.850;2023-01-28T09:20:05;47.15;;;27.65;;
32333;SDS011;18810;53.040;8.850;2023-01-28T09:22:32;54.90;;;29.27;;
32333;SDS011;18810;53.040;8.850;2023-01-28T09:24:58;40.60;;;25.55;;
32333;SDS011;18810;53.040;8.850;2023-01-28T09:27:23;45.95;;;26.23;;
32333;SDS011;18810;53.040;8.850;2023-01-28T09:29:49;39.28;;;24.55;;
32333;SDS011;18810;53.040;8.850;2023-01-28T09:32:15;42.58;;;25.52;;
32333;SDS011;18810;53.040;8.850;2023-01-28T09:34:41;40.13;;;25.30;;
32333;SDS011;18810;53.040;8.850;2023-01-28T09:37:08;37.42;;;23.17;;
32333;SDS011;18810;53.040;8.850;2023-01-28T09:39:35;40.60;;;25.48;;
32333;SDS011;18810;53.040;8.850;2023-01-28T09:42:18;35.95;;;23.98;;
32333;SDS011;18810;53.040;8.850;2023-01-28T09:45:15;41.58;;;23.35;;
32333;SDS011;18810;53.040;8.850;2023-01-28T09:47:53;35.50;;;23.48;;
32333;SDS011;18810;53.040;8.850;2023-01-28T09:52:53;31.55;;;21.50;;
32333;SDS011;18810;53.040;8.850;2023-01-28T09:55:24;30.58;;;21.23;;
32333;SDS011;18810;53.040;8.850;2023-01-28T09:57:56;28.92;;;18.98;;
32333;SDS011;18810;53.040;8.850;2023-01-28T10:00:23;29.60;;;19.73;;
32333;SDS011;18810;53.040;8.850;2023-01-28T10:06:06;34.20;;;21.20;;
32333;SDS011;18810;53.040;8.850;2023-01-28T10:20:05;29.38;;;20.40;;
32333;SDS011;18810;53.040;8.850;2023-01-28T10:25:13;33.92;;;20.58;;
32333;SDS011;18810;53.040;8.850;2023-01-28T10:27:46;34.78;;;20.30;;
32333;SDS011;18810;53.040;8.850;2023-01-28T10:30:18;29.65;;;19.45;;
32333;SDS011;18810;53.040;8.850;2023-01-28T10:32:53;36.22;;;20.50;;
32333;SDS011;18810;53.040;8.850;2023-01-28T10:35:22;31.17;;;19.00;;
32333;SDS011;18810;53.040;8.850;2023-01-28T10:37:48;33.05;;;19.52;;
32333;SDS011;18810;53.040;8.850;2023-01-28T10:40:15;27.88;;;18.60;;
32333;SDS011;18810;53.040;8.850;2023-01-28T10:42:42;30.48;;;18.30;;
32333;SDS011;18810;53.040;8.850;2023-01-28T10:45:25;28.13;;;18.73;;
32333;SDS011;18810;53.040;8.850;2023-01-28T10:48:19;28.17;;;18.00;;
32333;SDS011;18810;53.040;8.850;2023-01-28T10:50:50;29.88;;;17.02;;
32333;SDS011;18810;53.040;8.850;2023-01-28T10:53:17;30.92;;;17.58;;
32333;SDS011;18810;53.040;8.850;2023-01-28T10:58:21;27.88;;;16.60;;
32333;SDS011;18810;53.040;8.850;2023-01-28T11:00:53;30.33;;;17.77;;
32333;SDS011;18810;53.040;8.850;2023-01-28T11:03:24;31.48;;;19.40;;
32333;SDS011;18810;53.040;8.850;2023-01-28T11:05:54;27.90;;;18.05;;
32333;SDS011;18810;53.040;8.850;2023-01-28T11:08:22;26.40;;;17.52;;
32333;SDS011;18810;53.040;8.850;2023-01-28T11:10:50;24.08;;;16.88;;
32333;SDS011;18810;53.040;8.850;2023-01-28T11:13:29;25.20;;;16.25;;
32333;SDS011;18810;53.040;8.850;2023-01-28T11:18:45;24.25;;;16.00;;
32333;SDS011;18810;53.040;8.850;2023-01-28T11:21:23;23.95;;;15.45;;
32333;SDS011;18810;53.040;8.850;2023-01-28T11:23:56;27.15;;;17.02;;
32333;SDS011;18810;53.040;8.850;2023-01-28T11:26:31;24.58;;;16.27;;
32333;SDS011;18810;53.040;8.850;2023-01-28T11:29:00;31.08;;;18.58;;
32333;SDS011;18810;53.040;8.850;2023-01-28T11:31:26;27.35;;;18.13;;
32333;SDS011;18810;53.040;8.850;2023-01-28T11:33:54;25.33;;;15.93;;
32333;SDS011;18810;53.040;8.850;2023-01-28T11:36:26;27.15;;;15.80;;
32333;SDS011;18810;53.040;8.850;2023-01-28T11:38:54;27.63;;;16.95;;
32333;SDS011;18810;53.040;8.850;2023-01-28T11:41:28;30.10;;;17.30;;
32333;SDS011;18810;53.040;8.850;2023-01-28T11:43:57;27.40;;;17.08;;
32333;SDS011;18810;53.040;8.850;2023-01-28T11:48:56;27.95;;;17.38;;
32333;SDS011;18810;53.040;8.850;2023-01-28T11:51:39;29.08;;;17.85;;
32333;SDS011;18810;53.040;8.850;2023-01-28T12:05:56;28.67;;;17.25;;
32333;SDS011;18810;53.040;8.850;2023-01-28T12:19:55;27.17;;;16.45;;
32333;SDS011;18810;53.040;8.850;2023-01-28T12:28:56;28.77;;;17.67;;
32333;SDS011;18810;53.040;8.850;2023-01-28T12:31:46;27.73;;;17.15;;
32333;SDS011;18810;53.040;8.850;2023-01-28T12:34:29;27.45;;;16.38;;
32333;SDS011;18810;53.040;8.850;2023-01-28T12:44:45;26.98;;;16.15;;
32333;SDS011;18810;53.040;8.850;2023-01-28T12:47:19;28.42;;;17.92;;
32333;SDS011;18810;53.040;8.850;2023-01-28T12:49:52;25.52;;;17.50;;
32333;SDS011;18810;53.040;8.850;2023-01-28T12:52:32;32.03;;;18.80;;
32333;SDS011;18810;53.040;8.850;2023-01-28T12:57:41;33.47;;;20.40;;
32333;SDS011;18810;53.040;8.850;2023-01-28T13:02:52;28.58;;;17.77;;
32333;SDS011;18810;53.040;8.850;2023-01-28T13:05:45;26.55;;;16.52;;
32333;SDS011;18810;53.040;8.850;2023-01-28T13:08:24;27.98;;;17.30;;
32333;SDS011;18810;53.040;8.850;2023-01-28T13:10:51;26.77;;;16.88;;
32333;SDS011;18810;53.040;8.850;2023-01-28T13:13:31;22.58;;;15.25;;
32333;SDS011;18810;53.040;8.850;2023-01-28T13:21:04;25.88;;;14.75;;
32333;SDS011;18810;53.040;8.850;2023-01-28T13:26:56;26.38;;;15.68;;
32333;SDS011;18810;53.040;8.850;2023-01-28T13:31:45;23.65;;;14.90;;
32333;SDS011;18810;53.040;8.850;2023-01-28T13:37:16;24.20;;;15.52;;
32333;SDS011;18810;53.040;8.850;2023-01-28T13:39:58;24.80;;;14.20;;
32333;SDS011;18810;53.040;8.850;2023-01-28T13:42:55;23.17;;;14.40;;
32333;SDS011;18810;53.040;8.850;2023-01-28T13:45:29;24.00;;;15.27;;
32333;SDS011;18810;53.040;8.850;2023-01-28T13:48:44;23.70;;;15.48;;
32333;SDS011;18810;53.040;8.850;2023-01-28T13:50:56;24.88;;;15.45;;
32333;SDS011;18810;53.040;8.850;2023-01-28T13:53:57;26.25;;;16.20;;
32333;SDS011;18810;53.040;8.850;2023-01-28T13:56:24;24.38;;;15.32;;
32333;SDS011;18810;53.040;8.850;2023-01-28T13:59:12;26.02;;;16.50;;
32333;SDS011;18810;53.040;8.850;2023-01-28T14:07:09;29.25;;;16.35;;
32333;SDS011;18810;53.040;8.850;2023-01-28T14:12:19;25.98;;;15.75;;
32333;SDS011;18810;53.040;8.850;2023-01-28T14:17:58;24.70;;;15.57;;
32333;SDS011;18810;53.040;8.850;2023-01-28T14:20:25;27.08;;;15.35;;
32333;SDS011;18810;53.040;8.850;2023-01-28T14:22:53;25.08;;;15.38;;
32333;SDS011;18810;53.040;8.850;2023-01-28T14:25:51;25.17;;;15.93;;
32333;SDS011;18810;53.040;8.850;2023-01-28T14:31:10;23.52;;;15.65;;
32333;SDS011;18810;53.040;8.850;2023-01-28T14:33:42;24.58;;;15.25;;
32333;SDS011;18810;53.040;8.850;2023-01-28T14:36:11;22.58;;;14.85;;
32333;SDS011;18810;53.040;8.850;2023-01-28T14:38:38;26.00;;;15.65;;
32333;SDS011;18810;53.040;8.850;2023-01-28T14:41:07;22.30;;;15.55;;
32333;SDS011;18810;53.040;8.850;2023-01-28T14:43:41;24.02;;;15.52;;
32333;SDS011;18810;53.040;8.850;2023-01-28T14:46:18;18.77;;;13.50;;
32333;SDS011;18810;53.040;8.850;2023-01-28T14:48:59;23.13;;;13.93;;
32333;SDS011;18810;53.040;8.850;2023-01-28T14:51:56;27.10;;;15.45;;
32333;SDS011;18810;53.040;8.850;2023-01-28T14:54:31;28.95;;;15.80;;
32333;SDS011;18810;53.040;8.850;2023-01-28T14:57:13;26.80;;;16.05;;
32333;SDS011;18810;53.040;8.850;2023-01-28T14:59:54;24.23;;;14.55;;
32333;SDS011;18810;53.040;8.850;2023-01-28T15:02:26;28.25;;;15.70;;
32333;SDS011;18810;53.040;8.850;2023-01-28T15:04:54;23.70;;;14.75;;
32333;SDS011;18810;53.040;8.850;2023-01-28T15:07:31;22.10;;;15.07;;
32333;SDS011;18810;53.040;8.850;2023-01-28T15:10:00;26.23;;;15.77;;
32333;SDS011;18810;53.040;8.850;2023-01-28T15:12:57;24.30;;;14.57;;
32333;SDS011;18810;53.040;8.850;2023-01-28T15:15:34;27.33;;;14.95;;
32333;SDS011;18810;53.040;8.850;2023-01-28T15:18:03;20.70;;;14.15;;
32333;SDS011;18810;53.040;8.850;2023-01-28T15:20:45;24.40;;;14.20;;
32333;SDS011;18810;53.040;8.850;2023-01-28T15:25:42;22.20;;;13.27;;
32333;SDS011;18810;53.040;8.850;2023-01-28T15:28:11;23.45;;;14.25;;
32333;SDS011;18810;53.040;8.850;2023-01-28T15:30:46;27.20;;;15.02;;
32333;SDS011;18810;53.040;8.850;2023-01-28T15:33:13;23.35;;;14.77;;
32333;SDS011;18810;53.040;8.850;2023-01-28T15:35:51;21.27;;;14.48;;
32333;SDS011;18810;53.040;8.850;2023-01-28T15:38:18;22.45;;;14.70;;
32333;SDS011;18810;53.040;8.850;2023-01-28T15:40:53;26.00;;;14.85;;
32333;SDS011;18810;53.040;8.850;2023-01-28T15:43:23;23.42;;;14.73;;
32333;SDS011;18810;53.040;8.850;2023-01-28T15:45:53;24.30;;;15.68;;
32333;SDS011;18810;53.040;8.850;2023-01-28T15:48:20;26.50;;;16.38;;
32333;SDS011;18810;53.040;8.850;2023-01-28T15:50:48;25.83;;;15.45;;
32333;SDS011;18810;53.040;8.850;2023-01-28T15:53:23;28.45;;;16.42;;
32333;SDS011;18810;53.040;8.850;2023-01-28T15:55:49;26.60;;;16.50;;
32333;SDS011;18810;53.040;8.850;2023-01-28T15:58:24;28.90;;;15.40;;
32333;SDS011;18810;53.040;8.850;2023-01-28T16:03:33;26.38;;;16.20;;
32333;SDS011;18810;53.040;8.850;2023-01-28T16:06:14;28.85;;;16.30;;
32333;SDS011;18810;53.040;8.850;2023-01-28T16:08:56;30.38;;;16.52;;
32333;SDS011;18810;53.040;8.850;2023-01-28T16:11:28;30.25;;;16.48;;
32333;SDS011;18810;53.040;8.850;2023-01-28T16:13:56;36.78;;;20.42;;
32333;SDS011;18810;53.040;8.850;2023-01-28T16:16:27;31.83;;;18.95;;
32333;SDS011;18810;53.040;8.850;2023-01-28T16:18:58;34.42;;;18.60;;
32333;SDS011;18810;53.040;8.850;2023-01-28T16:21:27;28.85;;;17.13;;
32333;SDS011;18810;53.040;8.850;2023-01-28T16:24:06;29.10;;;18.17;;
32333;SDS011;18810;53.040;8.850;2023-01-28T16:27:04;29.42;;;17.10;;
32333;SDS011;18810;53.040;8.850;2023-01-28T16:29:42;31.15;;;17.10;;
32333;SDS011;18810;53.040;8.850;2023-01-28T16:32:30;28.85;;;16.70;;
32333;SDS011;18810;53.040;8.850;2023-01-28T16:34:58;32.22;;;18.10;;
32333;SDS011;18810;53.040;8.850;2023-01-28T16:37:24;30.05;;;17.33;;
32333;SDS011;18810;53.040;8.850;2023-01-28T16:39:50;30.00;;;16.80;;
32333;SDS011;18810;53.040;8.850;2023-01-28T16:42:16;31.77;;;17.52;;
32333;SDS011;18810;53.040;8.850;2023-01-28T16:44:42;29.88;;;16.92;;
32333;SDS011;18810;53.040;8.850;2023-01-28T16:47:07;26.52;;;17.05;;
32333;SDS011;18810;53.040;8.850;2023-01-28T16:49:33;30.15;;;16.80;;
32333;SDS011;18810;53.040;8.850;2023-01-28T16:51:59;29.52;;;17.27;;
32333;SDS011;18810;53.040;8.850;2023-01-28T16:54:26;28.90;;;16.42;;